createdAt,value
2019-02-06T00:01:07.354Z,22.53
2019-02-06T00:03:36.992Z,23.80
2019-02-06T00:06:06.896Z,21.97
2019-02-06T00:08:36.318Z,19.30
2019-02-06T00:11:06.123Z,20.17
2019-02-06T00:13:36.015Z,20.80
2019-02-06T00:16:06.229Z,24.17
2019-02-06T00:18:35.775Z,21.60
2019-02-06T00:21:05.287Z,26.27
2019-02-06T00:23:34.766Z,19.87
2019-02-06T00:26:04.563Z,27.03
2019-02-06T00:28:34.358Z,22.83
2019-02-06T00:31:04.066Z,21.87
2019-02-06T00:33:33.475Z,19.23
2019-02-06T00:36:03.135Z,21.93
2019-02-06T00:38:32.600Z,20.57
2019-02-06T00:41:02.007Z,19.73
2019-02-06T00:43:31.431Z,16.60
2019-02-06T00:46:00.909Z,22.90
2019-02-06T00:48:30.317Z,20.77
2019-02-06T00:50:59.775Z,20.73
2019-02-06T00:53:29.167Z,20.47
2019-02-06T00:55:58.888Z,21.37
2019-02-06T00:58:28.354Z,17.73
2019-02-06T01:00:57.838Z,19.93
2019-02-06T01:03:27.320Z,17.60
2019-02-06T01:05:56.746Z,20.93
2019-02-06T01:08:26.584Z,20.10
2019-02-06T01:10:56.187Z,19.13
2019-02-06T01:13:25.642Z,17.53
2019-02-06T01:15:55.187Z,20.97
2019-02-06T01:18:24.594Z,19.07
2019-02-06T01:20:54.008Z,16.77
2019-02-06T01:23:23.406Z,20.37
2019-02-06T01:25:52.888Z,19.43
2019-02-06T01:28:22.662Z,20.23
2019-02-06T01:31:17.446Z,21.63
2019-02-06T01:33:46.934Z,18.00
2019-02-06T01:36:16.332Z,21.67
2019-02-06T01:38:46.100Z,17.17
2019-02-06T01:41:15.510Z,17.90
2019-02-06T01:43:45.000Z,17.30
2019-02-06T01:46:14.552Z,19.63
2019-02-06T01:48:43.935Z,18.93
2019-02-06T01:51:13.492Z,15.93
2019-02-06T01:53:43.256Z,18.47
2019-02-06T01:56:12.726Z,16.13
2019-02-06T01:58:42.115Z,18.43
2019-02-06T02:01:11.866Z,17.30
2019-02-06T02:03:41.252Z,19.67
2019-02-06T02:06:11.018Z,20.30
2019-02-06T02:08:48.226Z,18.57
2019-02-06T02:11:18.097Z,19.10
2019-02-06T02:13:47.550Z,21.60
2019-02-06T02:16:16.959Z,17.50
2019-02-06T02:18:46.359Z,17.90
2019-02-06T02:21:15.794Z,18.17
2019-02-06T02:23:45.309Z,17.83
2019-02-06T02:26:14.925Z,16.83
2019-02-06T02:28:44.319Z,17.10
2019-02-06T02:31:13.808Z,18.70
2019-02-06T02:33:43.277Z,18.10
2019-02-06T02:36:16.341Z,17.17
2019-02-06T02:38:44.170Z,17.47
2019-02-06T02:41:13.663Z,15.17
2019-02-06T02:43:43.058Z,18.00
2019-02-06T02:46:12.457Z,16.77
2019-02-06T02:48:41.954Z,20.10
2019-02-06T02:51:11.705Z,19.43
2019-02-06T02:53:41.132Z,18.30
2019-02-06T02:56:10.531Z,17.97
2019-02-06T02:58:39.942Z,20.97
2019-02-06T03:01:23.331Z,20.23
2019-02-06T03:04:30.645Z,19.63
2019-02-06T03:07:00.154Z,19.80
2019-02-06T03:09:29.548Z,18.40
2019-02-06T03:11:59.469Z,19.00
2019-02-06T03:14:28.932Z,19.30
2019-02-06T03:16:58.471Z,21.17
2019-02-06T03:19:27.899Z,22.83
2019-02-06T03:21:57.470Z,17.13
2019-02-06T03:24:26.923Z,21.50
2019-02-06T03:26:56.680Z,19.53
2019-02-06T03:29:26.216Z,22.43
2019-02-06T03:31:55.652Z,18.50
2019-02-06T03:34:25.605Z,20.20
2019-02-06T03:36:55.076Z,18.73
2019-02-06T03:39:24.471Z,22.40
2019-02-06T03:41:54.142Z,17.93
2019-02-06T03:44:23.549Z,20.97
2019-02-06T03:46:52.949Z,20.20
2019-02-06T03:49:22.359Z,20.53
2019-02-06T03:51:51.833Z,21.80
2019-02-06T03:54:21.234Z,21.80
2019-02-06T03:56:51.096Z,20.40
2019-02-06T03:59:20.580Z,19.73
2019-02-06T04:01:50.012Z,22.53
2019-02-06T04:04:19.405Z,24.17
2019-02-06T04:06:56.459Z,20.50
2019-02-06T04:09:19.912Z,20.40
2019-02-06T04:11:49.677Z,23.37
2019-02-06T04:14:19.083Z,23.90
2019-02-06T04:16:48.540Z,22.97
2019-02-06T04:19:18.031Z,24.50
2019-02-06T04:21:47.421Z,23.80
2019-02-06T04:24:16.903Z,25.50
2019-02-06T04:26:46.570Z,26.63
2019-02-06T04:29:16.294Z,25.23
2019-02-06T04:31:45.764Z,28.13
2019-02-06T04:34:15.428Z,30.40
2019-02-06T04:36:44.914Z,26.77
2019-02-06T04:39:14.607Z,25.20
2019-02-06T04:41:44.210Z,25.73
2019-02-06T04:44:13.605Z,27.47
2019-02-06T04:46:43.013Z,27.57
2019-02-06T04:49:12.430Z,28.67
2019-02-06T04:51:41.812Z,26.90
2019-02-06T04:54:11.211Z,30.13
2019-02-06T04:56:40.910Z,27.60
2019-02-06T04:59:10.377Z,26.40
2019-02-06T05:01:39.772Z,24.47
2019-02-06T05:04:09.175Z,29.23
2019-02-06T05:06:38.585Z,28.70
2019-02-06T05:09:08.577Z,30.33
2019-02-06T05:11:38.352Z,28.27
2019-02-06T05:14:07.814Z,31.43
2019-02-06T05:16:37.230Z,37.40
2019-02-06T05:19:06.723Z,33.10
2019-02-06T05:21:36.210Z,31.67
2019-02-06T05:24:05.622Z,29.77
2019-02-06T05:26:35.454Z,34.37
2019-02-06T05:29:04.904Z,30.30
2019-02-06T05:31:34.308Z,29.23
2019-02-06T05:34:04.202Z,31.57
2019-02-06T05:36:33.626Z,32.20
2019-02-06T05:39:04.237Z,30.17
2019-02-06T05:41:34.023Z,31.47
2019-02-06T05:44:03.491Z,38.37
2019-02-06T05:46:32.931Z,36.43
2019-02-06T05:49:02.435Z,37.10
2019-02-06T05:51:31.924Z,35.53
2019-02-06T05:54:01.385Z,36.97
2019-02-06T05:56:30.787Z,35.77
2019-02-06T05:59:00.358Z,37.37
2019-02-06T06:01:29.769Z,39.83
2019-02-06T06:03:59.263Z,35.40
2019-02-06T06:06:28.703Z,33.37
2019-02-06T06:08:58.294Z,36.93
2019-02-06T06:11:27.725Z,41.10
2019-02-06T06:13:57.433Z,37.63
2019-02-06T06:16:26.944Z,37.23
2019-02-06T06:18:56.340Z,35.87
2019-02-06T06:21:25.813Z,40.30
2019-02-06T06:23:55.358Z,36.63
2019-02-06T06:26:24.887Z,37.53
2019-02-06T06:28:54.680Z,41.97
2019-02-06T06:31:24.090Z,37.43
2019-02-06T06:33:53.665Z,34.47
2019-02-06T06:36:23.152Z,36.30
2019-02-06T06:38:52.645Z,38.37
2019-02-06T06:41:22.122Z,40.80
2019-02-06T06:43:51.550Z,41.13
2019-02-06T06:46:20.946Z,38.27
2019-02-06T06:48:50.520Z,43.10
2019-02-06T06:51:19.946Z,46.27
2019-02-06T06:53:49.410Z,39.87
2019-02-06T06:56:18.844Z,57.33
2019-02-06T06:58:48.254Z,42.57
2019-02-06T07:01:17.659Z,40.23
2019-02-06T07:03:47.062Z,40.60
2019-02-06T07:06:16.506Z,40.43
2019-02-06T07:08:45.929Z,39.33
2019-02-06T07:11:15.330Z,43.53
2019-02-06T07:13:44.812Z,41.93
2019-02-06T07:16:14.364Z,44.63
2019-02-06T07:18:43.768Z,42.10
2019-02-06T07:21:13.396Z,43.90
2019-02-06T07:23:42.792Z,41.90
2019-02-06T07:26:12.188Z,39.97
2019-02-06T07:28:41.701Z,44.73
2019-02-06T07:31:11.139Z,50.90
2019-02-06T07:33:40.723Z,42.47
2019-02-06T07:36:10.187Z,41.43
2019-02-06T07:38:39.595Z,41.00
2019-02-06T07:41:08.990Z,40.50
2019-02-06T07:43:38.449Z,39.97
2019-02-06T07:46:07.965Z,37.37
2019-02-06T07:48:37.496Z,42.70
2019-02-06T07:51:06.905Z,46.30
2019-02-06T07:53:36.341Z,42.53
2019-02-06T07:56:05.811Z,41.87
2019-02-06T07:58:35.323Z,37.57
2019-02-06T08:01:05.453Z,40.87
2019-02-06T08:03:34.888Z,43.87
2019-02-06T08:06:04.755Z,47.20
2019-02-06T08:08:36.083Z,43.90
2019-02-06T08:11:05.319Z,62.60
2019-02-06T08:13:34.915Z,48.57
2019-02-06T08:16:07.260Z,45.93
2019-02-06T08:18:35.651Z,38.80
2019-02-06T08:21:05.059Z,42.07
2019-02-06T08:23:34.561Z,40.07
2019-02-06T08:26:03.997Z,37.73
2019-02-06T08:28:33.530Z,39.70
2019-02-06T08:31:02.939Z,44.30
2019-02-06T08:33:32.378Z,52.50
2019-02-06T08:36:01.822Z,54.63
2019-02-06T08:38:31.273Z,44.03
2019-02-06T08:41:00.698Z,39.67
2019-02-06T08:43:30.191Z,40.67
2019-02-06T08:45:59.671Z,37.23
2019-02-06T08:48:29.214Z,37.27
2019-02-06T08:50:58.722Z,47.57
2019-02-06T08:53:28.302Z,48.57
2019-02-06T08:55:57.810Z,41.73
2019-02-06T08:58:27.238Z,43.40
2019-02-06T09:00:56.749Z,36.13
2019-02-06T09:03:26.144Z,36.70
2019-02-06T09:05:55.613Z,34.90
2019-02-06T09:08:25.022Z,38.60
2019-02-06T09:10:54.556Z,39.00
2019-02-06T09:13:24.159Z,41.57
2019-02-06T09:15:53.946Z,33.47
2019-02-06T09:18:23.450Z,35.00
2019-02-06T09:20:53.150Z,42.67
2019-02-06T09:23:22.697Z,34.33
2019-02-06T09:25:52.571Z,43.43
2019-02-06T09:28:22.005Z,37.80
2019-02-06T09:30:51.439Z,35.03
2019-02-06T09:33:20.878Z,30.10
2019-02-06T09:35:50.442Z,29.60
2019-02-06T09:38:19.841Z,28.43
2019-02-06T09:40:49.784Z,30.00
2019-02-06T09:43:19.489Z,27.23
2019-02-06T09:45:49.253Z,29.90
2019-02-06T09:48:18.769Z,29.53
2019-02-06T09:50:48.194Z,30.33
2019-02-06T09:53:17.656Z,27.20
2019-02-06T09:55:47.274Z,28.80
2019-02-06T09:58:16.890Z,28.83
2019-02-06T10:00:46.950Z,32.93
2019-02-06T10:03:16.634Z,25.73
2019-02-06T10:05:46.026Z,26.27
2019-02-06T10:08:15.513Z,27.97
2019-02-06T10:10:44.922Z,22.57
2019-02-06T10:13:16.449Z,25.37
2019-02-06T10:15:45.568Z,27.80
2019-02-06T10:18:15.021Z,24.27
2019-02-06T10:20:47.478Z,22.90
2019-02-06T10:23:17.284Z,24.33
2019-02-06T10:25:46.912Z,24.97
2019-02-06T10:28:16.638Z,24.77
2019-02-06T10:30:50.647Z,20.20
2019-02-06T10:33:20.379Z,19.60
2019-02-06T10:35:52.081Z,22.97
2019-02-06T10:38:21.857Z,22.47
2019-02-06T10:40:51.376Z,22.20
2019-02-06T10:43:31.754Z,21.10
2019-02-06T10:45:52.616Z,18.10
2019-02-06T10:48:22.214Z,19.73
2019-02-06T10:50:53.117Z,20.00
2019-02-06T10:53:22.873Z,19.93
2019-02-06T10:55:52.410Z,20.83
2019-02-06T10:58:22.183Z,22.30
2019-02-06T11:00:57.655Z,20.53
2019-02-06T11:03:27.213Z,17.30
2019-02-06T11:05:56.807Z,23.30
2019-02-06T11:08:26.397Z,17.47
2019-02-06T11:10:56.321Z,20.47
2019-02-06T11:13:25.964Z,18.60
2019-02-06T11:15:55.438Z,18.07
2019-02-06T11:18:24.947Z,20.77
2019-02-06T11:20:54.441Z,17.80
2019-02-06T11:23:23.862Z,16.00
2019-02-06T11:25:53.400Z,19.73
2019-02-06T11:28:22.933Z,20.47
2019-02-06T11:30:52.483Z,20.53
2019-02-06T11:33:22.086Z,19.13
2019-02-06T11:35:51.542Z,17.00
2019-02-06T11:38:21.010Z,20.27
2019-02-06T11:40:50.610Z,18.93
2019-02-06T11:43:20.204Z,19.17
2019-02-06T11:45:49.742Z,18.60
2019-02-06T11:48:19.402Z,17.50
2019-02-06T11:50:48.794Z,16.53
2019-02-06T11:53:26.508Z,18.00
2019-02-06T11:55:57.002Z,14.40
2019-02-06T11:58:26.815Z,16.87
2019-02-06T12:01:14.898Z,18.60
2019-02-06T12:03:44.394Z,19.50
2019-02-06T12:06:14.239Z,19.40
2019-02-06T12:08:43.810Z,17.37
2019-02-06T12:11:13.881Z,16.47
2019-02-06T12:13:43.759Z,20.53
2019-02-06T12:16:13.345Z,12.93
2019-02-06T12:18:42.892Z,17.10
2019-02-06T12:21:12.681Z,15.50
2019-02-06T12:23:42.093Z,12.40
2019-02-06T12:26:11.611Z,14.20
2019-02-06T12:28:41.032Z,13.80
2019-02-06T12:31:10.765Z,12.83
2019-02-06T12:33:40.267Z,14.10
2019-02-06T12:36:10.199Z,13.97
2019-02-06T12:38:39.603Z,14.03
2019-02-06T12:41:09.101Z,12.90
2019-02-06T12:43:38.487Z,14.63
2019-02-06T12:46:08.090Z,12.53
2019-02-06T12:48:37.487Z,14.27
2019-02-06T12:51:07.049Z,17.50
2019-02-06T12:53:36.463Z,14.77
2019-02-06T12:56:06.049Z,13.43
2019-02-06T12:58:35.617Z,12.63
2019-02-06T13:01:05.895Z,14.37
2019-02-06T13:03:35.429Z,15.13
2019-02-06T13:06:05.649Z,13.67
2019-02-06T13:08:35.095Z,20.70
2019-02-06T13:11:04.645Z,13.23
2019-02-06T13:13:34.089Z,13.30
2019-02-06T13:16:03.665Z,14.30
2019-02-06T13:18:33.104Z,15.60
2019-02-06T13:21:02.595Z,13.47
2019-02-06T13:23:31.983Z,15.10
2019-02-06T13:26:01.417Z,17.23
2019-02-06T13:28:30.958Z,15.57
2019-02-06T13:31:00.538Z,14.07
2019-02-06T13:33:29.988Z,13.50
2019-02-06T13:35:59.580Z,11.13
2019-02-06T13:38:31.864Z,14.10
2019-02-06T13:41:01.358Z,13.87
2019-02-06T13:43:30.834Z,13.97
2019-02-06T13:46:00.404Z,14.27
2019-02-06T13:48:29.818Z,14.03
2019-02-06T13:50:59.258Z,12.70
2019-02-06T13:53:28.706Z,11.17
2019-02-06T13:55:58.252Z,12.90
2019-02-06T13:58:27.646Z,13.23
2019-02-06T14:00:57.342Z,15.07
2019-02-06T14:03:26.804Z,10.70
2019-02-06T14:05:56.490Z,14.73
2019-02-06T14:08:26.462Z,13.30
2019-02-06T14:11:00.565Z,15.30
2019-02-06T14:13:27.369Z,12.20
2019-02-06T14:15:56.951Z,11.97
2019-02-06T14:18:26.421Z,14.27
2019-02-06T14:20:55.895Z,13.97
2019-02-06T14:24:19.680Z,15.37
2019-02-06T14:27:14.013Z,15.33
2019-02-06T14:30:16.104Z,14.80
2019-02-06T14:33:23.733Z,11.20
2019-02-06T14:36:32.253Z,11.77
2019-02-06T14:39:38.445Z,14.43
2019-02-06T14:42:28.895Z,10.93
2019-02-06T14:45:50.771Z,17.43
2019-02-06T14:49:02.739Z,19.17
2019-02-06T14:52:08.087Z,14.73
2019-02-06T14:54:44.500Z,14.77
2019-02-06T14:57:55.039Z,11.50
2019-02-06T15:01:20.747Z,14.37
2019-02-06T15:04:15.790Z,12.93
2019-02-06T15:06:59.106Z,14.43
2019-02-06T15:10:10.038Z,15.43
2019-02-06T15:13:04.538Z,11.17
2019-02-06T15:16:34.085Z,16.53
2019-02-06T15:19:46.670Z,16.57
2019-02-06T15:23:07.443Z,18.40
2019-02-06T15:25:48.060Z,13.30
2019-02-06T15:29:01.214Z,13.40
2019-02-06T15:31:55.998Z,15.57
2019-02-06T15:35:00.924Z,12.43
2019-02-06T15:37:40.846Z,15.93
2019-02-06T15:40:22.775Z,15.33
2019-02-06T15:43:13.605Z,15.90
2019-02-06T15:46:08.892Z,12.37
2019-02-06T15:49:11.164Z,13.13
2019-02-06T15:52:07.499Z,15.67
2019-02-06T15:54:48.130Z,17.67
2019-02-06T15:57:27.700Z,19.17
2019-02-06T16:00:39.312Z,14.23
2019-02-06T16:03:25.883Z,15.73
2019-02-06T16:06:26.439Z,13.10
2019-02-06T16:09:39.191Z,15.30
2019-02-06T16:12:43.838Z,15.13
2019-02-06T16:15:39.707Z,18.67
2019-02-06T16:18:22.679Z,15.90
2019-02-06T16:21:30.803Z,18.77
2019-02-06T16:24:37.325Z,14.63
2019-02-06T16:27:30.119Z,15.33
2019-02-06T16:30:22.189Z,19.53
2019-02-06T16:33:28.499Z,16.73
2019-02-06T16:36:18.826Z,16.67
2019-02-06T16:39:00.470Z,17.60
2019-02-06T16:41:56.518Z,18.17
2019-02-06T16:45:13.295Z,16.50
2019-02-06T16:48:17.969Z,18.60
2019-02-06T16:51:12.210Z,18.07
2019-02-06T16:54:15.203Z,19.47
2019-02-06T16:57:38.491Z,18.50
2019-02-06T17:00:30.330Z,17.13
2019-02-06T17:04:08.626Z,20.00
2019-02-06T17:07:27.736Z,20.47
2019-02-06T17:10:43.914Z,19.53
2019-02-06T17:13:28.204Z,18.40
2019-02-06T17:16:21.768Z,18.13
2019-02-06T17:19:05.718Z,20.27
2019-02-06T17:22:19.252Z,18.87
2019-02-06T17:25:27.846Z,20.50
2019-02-06T17:28:45.396Z,18.10
2019-02-06T17:31:57.091Z,20.50
2019-02-06T17:34:42.158Z,26.40
2019-02-06T17:37:49.194Z,29.50
2019-02-06T17:40:47.127Z,20.67
2019-02-06T17:43:31.998Z,21.47
2019-02-06T17:46:15.822Z,26.83
2019-02-06T17:49:33.838Z,21.30
2019-02-06T17:52:31.337Z,17.37
2019-02-06T17:55:15.911Z,19.87
2019-02-06T17:57:46.217Z,22.27
2019-02-06T18:00:23.215Z,21.53
2019-02-06T18:02:52.668Z,19.67
2019-02-06T18:05:22.354Z,23.00
2019-02-06T18:07:51.897Z,19.77
2019-02-06T18:10:21.672Z,20.87
2019-02-06T18:12:51.152Z,22.03
2019-02-06T18:15:20.801Z,21.73
2019-02-06T18:17:50.245Z,23.40
2019-02-06T18:20:19.908Z,20.47
2019-02-06T18:22:49.705Z,21.33
2019-02-06T18:25:19.905Z,19.60
2019-02-06T18:27:49.555Z,20.73
2019-02-06T18:30:19.949Z,27.17
2019-02-06T18:32:49.597Z,21.87
2019-02-06T18:35:19.258Z,19.27
2019-02-06T18:37:50.761Z,17.47
2019-02-06T18:40:23.643Z,21.10
2019-02-06T18:42:53.739Z,21.47
2019-02-06T18:45:23.742Z,17.17
2019-02-06T18:47:56.755Z,20.93
2019-02-06T18:50:26.773Z,23.10
2019-02-06T18:52:56.532Z,22.53
2019-02-06T18:55:26.121Z,23.43
2019-02-06T18:57:56.170Z,20.87
2019-02-06T19:00:28.480Z,20.47
2019-02-06T19:02:58.284Z,20.33
2019-02-06T19:05:31.351Z,24.50
2019-02-06T19:08:00.842Z,20.50
2019-02-06T19:10:30.464Z,21.00
2019-02-06T19:13:00.064Z,19.60
2019-02-06T19:15:30.247Z,19.20
2019-02-06T19:17:59.826Z,19.13
2019-02-06T19:20:29.366Z,20.17
2019-02-06T19:22:58.807Z,21.27
2019-02-06T19:25:28.278Z,19.37
2019-02-06T19:27:57.947Z,19.20
2019-02-06T19:30:30.186Z,18.70
2019-02-06T19:32:59.695Z,18.03
2019-02-06T19:35:29.334Z,22.27
2019-02-06T19:37:58.803Z,19.10
2019-02-06T19:40:28.362Z,23.90
2019-02-06T19:43:00.439Z,22.13
2019-02-06T19:45:28.984Z,24.67
2019-02-06T19:47:59.005Z,22.43
2019-02-06T19:50:31.571Z,21.57
2019-02-06T19:53:01.169Z,19.53
2019-02-06T19:55:30.668Z,20.97
2019-02-06T19:58:00.160Z,18.60
2019-02-06T20:00:30.862Z,20.77
2019-02-06T20:03:00.425Z,19.90
2019-02-06T20:05:30.741Z,20.43
2019-02-06T20:08:00.555Z,18.37
2019-02-06T20:10:32.857Z,20.77
2019-02-06T20:13:10.646Z,21.87
2019-02-06T20:15:33.775Z,18.27
2019-02-06T20:18:03.399Z,21.27
2019-02-06T20:20:33.298Z,21.63
2019-02-06T20:23:02.796Z,20.40
2019-02-06T20:25:32.349Z,21.00
2019-02-06T20:28:01.979Z,20.77
2019-02-06T20:30:31.687Z,20.93
2019-02-06T20:33:01.442Z,23.17
2019-02-06T20:35:31.231Z,20.57
2019-02-06T20:38:00.746Z,21.07
2019-02-06T20:40:32.331Z,20.30
2019-02-06T20:43:01.942Z,19.10
2019-02-06T20:45:31.785Z,19.80
2019-02-06T20:48:01.361Z,19.97
2019-02-06T20:50:32.011Z,21.67
2019-02-06T20:53:01.800Z,19.77
2019-02-06T20:55:31.519Z,20.37
2019-02-06T20:58:01.157Z,21.20
2019-02-06T21:00:35.547Z,23.73
2019-02-06T21:03:05.955Z,23.83
2019-02-06T21:05:35.814Z,23.20
2019-02-06T21:08:05.894Z,24.23
2019-02-06T21:10:35.447Z,23.37
2019-02-06T21:13:06.532Z,23.57
2019-02-06T21:15:36.179Z,23.37
2019-02-06T21:18:05.846Z,19.33
2019-02-06T21:20:35.325Z,21.73
2019-02-06T21:23:04.925Z,23.00
2019-02-06T21:25:34.337Z,22.50
2019-02-06T21:28:03.811Z,19.87
2019-02-06T21:30:34.709Z,18.50
2019-02-06T21:33:04.355Z,21.73
2019-02-06T21:35:34.025Z,20.33
2019-02-06T21:38:03.599Z,21.53
2019-02-06T21:40:34.353Z,19.10
2019-02-06T21:43:04.571Z,21.90
2019-02-06T21:45:34.335Z,20.23
2019-02-06T21:48:04.223Z,20.70
2019-02-06T21:50:33.775Z,19.60
2019-02-06T21:53:03.188Z,23.83
2019-02-06T21:55:32.671Z,22.83
2019-02-06T21:58:02.219Z,21.13
2019-02-06T22:00:34.324Z,19.43
2019-02-06T22:03:04.061Z,18.33
2019-02-06T22:05:33.740Z,22.07
2019-02-06T22:08:03.315Z,18.80
2019-02-06T22:10:32.796Z,19.37
2019-02-06T22:13:02.417Z,18.67
2019-02-06T22:15:32.124Z,23.83
2019-02-06T22:18:01.686Z,27.83
2019-02-06T22:20:31.623Z,22.10
2019-02-06T22:23:01.116Z,21.60
2019-02-06T22:25:30.675Z,21.70
2019-02-06T22:28:00.160Z,26.53
2019-02-06T22:30:29.915Z,21.30
2019-02-06T22:32:59.545Z,24.67
2019-02-06T22:35:29.103Z,30.37
2019-02-06T22:37:58.589Z,25.40
2019-02-06T22:40:28.170Z,26.93
2019-02-06T22:42:57.662Z,25.27
2019-02-06T22:45:27.594Z,26.93
2019-02-06T22:47:57.271Z,23.00
2019-02-06T22:50:27.687Z,23.10
2019-02-06T22:52:57.174Z,25.23
2019-02-06T22:55:26.703Z,26.40
2019-02-06T22:57:56.354Z,24.13
2019-02-06T23:00:49.410Z,20.60
2019-02-06T23:03:25.315Z,21.73
2019-02-06T23:05:54.874Z,24.20
2019-02-06T23:08:24.327Z,23.73
2019-02-06T23:10:53.835Z,24.40
2019-02-06T23:13:23.381Z,22.27
2019-02-06T23:15:52.871Z,23.63
2019-02-06T23:18:23.453Z,20.23
2019-02-06T23:20:53.194Z,22.67
2019-02-06T23:23:22.585Z,21.77
2019-02-06T23:25:52.445Z,20.23
2019-02-06T23:28:21.839Z,19.53
2019-02-06T23:30:51.245Z,18.00
2019-02-06T23:33:20.735Z,20.07
2019-02-06T23:35:50.302Z,19.60
2019-02-06T23:38:19.709Z,20.47
2019-02-06T23:40:49.473Z,19.37
2019-02-06T23:43:18.871Z,17.20
2019-02-06T23:45:48.261Z,17.47
2019-02-06T23:48:17.676Z,19.50
2019-02-06T23:50:47.093Z,18.60
2019-02-06T23:53:16.506Z,20.40
2019-02-06T23:55:46.268Z,23.30
2019-02-06T23:58:15.676Z,21.00
